createdAt,value
2023-05-16T00:01:48.230Z,12.24
2023-05-16T00:04:15.116Z,12.13
2023-05-16T00:06:41.917Z,12.07
2023-05-16T00:09:08.516Z,12.11
2023-05-16T00:11:35.258Z,12.06
2023-05-16T00:14:02.633Z,12.11
2023-05-16T00:16:30.281Z,12.09
2023-05-16T00:19:01.297Z,12.04
2023-05-16T00:21:28.473Z,12.03
2023-05-16T00:23:55.159Z,11.96
2023-05-16T00:26:22.299Z,11.98
2023-05-16T00:28:49.217Z,11.93
2023-05-16T00:31:16.026Z,11.92
2023-05-16T00:33:42.772Z,11.83
2023-05-16T00:36:09.660Z,11.80
2023-05-16T00:38:37.589Z,11.74
2023-05-16T00:41:04.559Z,11.68
2023-05-16T00:43:31.293Z,11.68
2023-05-16T00:45:58.230Z,11.69
2023-05-16T00:48:25.654Z,11.58
2023-05-16T00:50:53.286Z,11.53
2023-05-16T00:53:20.702Z,11.49
2023-05-16T00:55:47.698Z,11.42
2023-05-16T00:58:14.932Z,11.42
2023-05-16T01:00:42.365Z,11.31
2023-05-16T01:03:09.212Z,11.30
2023-05-16T01:05:36.048Z,11.31
2023-05-16T01:08:02.864Z,11.33
2023-05-16T01:10:39.795Z,11.32
2023-05-16T01:13:07.220Z,11.34
2023-05-16T01:15:45.357Z,11.28
2023-05-16T01:18:48.049Z,11.26
2023-05-16T01:21:25.941Z,11.19
2023-05-16T01:24:03.765Z,11.15
2023-05-16T01:26:32.416Z,11.14
2023-05-16T01:28:59.851Z,11.14
2023-05-16T01:31:26.707Z,11.10
2023-05-16T01:33:53.416Z,11.05
2023-05-16T01:36:26.081Z,10.98
2023-05-16T01:39:13.013Z,10.91
2023-05-16T01:42:02.212Z,10.85
2023-05-16T01:44:36.471Z,10.78
2023-05-16T01:47:09.874Z,10.74
2023-05-16T01:50:01.388Z,10.68
2023-05-16T01:52:42.827Z,10.63
2023-05-16T01:55:15.090Z,10.55
2023-05-16T01:57:42.680Z,10.51
2023-05-16T02:00:10.261Z,10.43
2023-05-16T02:02:37.084Z,10.42
2023-05-16T02:05:04.090Z,10.39
2023-05-16T02:07:30.900Z,10.40
2023-05-16T02:09:57.646Z,10.38
2023-05-16T02:12:25.102Z,10.30
2023-05-16T02:14:51.890Z,10.29
2023-05-16T02:17:18.515Z,10.26
2023-05-16T02:19:45.243Z,10.24
2023-05-16T02:22:12.006Z,10.15
2023-05-16T02:24:38.630Z,10.22
2023-05-16T02:27:05.535Z,10.27
2023-05-16T02:29:32.188Z,10.27
2023-05-16T02:31:58.844Z,10.19
2023-05-16T02:34:25.622Z,10.21
2023-05-16T02:36:52.279Z,10.20
2023-05-16T02:39:18.950Z,10.16
2023-05-16T02:41:45.646Z,10.15
2023-05-16T02:44:12.263Z,10.04
2023-05-16T02:46:38.909Z,9.96
2023-05-16T02:49:05.801Z,9.93
2023-05-16T02:51:32.404Z,9.85
2023-05-16T02:54:01.970Z,9.83
2023-05-16T02:56:28.748Z,9.88
2023-05-16T02:58:56.174Z,9.83
2023-05-16T03:01:23.078Z,9.84
2023-05-16T03:03:50.066Z,9.87
2023-05-16T03:06:16.853Z,9.95
2023-05-16T03:08:43.534Z,9.99
2023-05-16T03:11:10.193Z,10.04
2023-05-16T03:13:36.988Z,10.06
2023-05-16T03:16:03.945Z,10.09
2023-05-16T03:18:31.026Z,10.11
2023-05-16T03:20:58.323Z,10.13
2023-05-16T03:23:25.368Z,10.16
2023-05-16T03:25:52.089Z,10.16
2023-05-16T03:28:18.744Z,10.16
2023-05-16T03:30:45.511Z,10.20
2023-05-16T03:33:12.251Z,10.18
2023-05-16T03:35:39.698Z,10.24
2023-05-16T03:38:06.590Z,10.23
2023-05-16T03:40:33.364Z,10.25
2023-05-16T03:43:00.146Z,10.25
2023-05-16T03:45:27.247Z,10.21
2023-05-16T03:47:54.153Z,10.20
2023-05-16T03:50:20.940Z,10.24
2023-05-16T03:52:47.566Z,10.26
2023-05-16T03:55:15.371Z,10.25
2023-05-16T03:57:42.888Z,10.21
2023-05-16T04:00:11.488Z,10.17
2023-05-16T04:02:41.944Z,10.23
2023-05-16T04:05:10.433Z,10.25
2023-05-16T04:07:37.830Z,10.30
2023-05-16T04:10:05.333Z,10.32
2023-05-16T04:12:32.106Z,10.32
2023-05-16T04:14:58.979Z,10.35
2023-05-16T04:17:25.924Z,10.31
2023-05-16T04:19:52.664Z,10.29
2023-05-16T04:22:22.020Z,10.31
2023-05-16T04:24:49.280Z,10.29
2023-05-16T04:27:16.046Z,10.27
2023-05-16T04:29:42.810Z,10.33
2023-05-16T04:32:09.684Z,10.35
2023-05-16T04:34:39.655Z,10.38
2023-05-16T04:37:08.614Z,10.42
2023-05-16T04:39:36.782Z,10.42
2023-05-16T04:42:04.532Z,10.45
2023-05-16T04:44:31.763Z,10.40
2023-05-16T04:46:58.649Z,10.43
2023-05-16T04:49:25.376Z,10.46
2023-05-16T04:51:52.314Z,10.46
2023-05-16T04:54:18.938Z,10.41
2023-05-16T04:56:45.656Z,10.44
2023-05-16T04:59:12.327Z,10.39
2023-05-16T05:01:39.686Z,10.40
2023-05-16T05:04:06.653Z,10.44
2023-05-16T05:06:33.564Z,10.40
2023-05-16T05:09:00.375Z,10.40
2023-05-16T05:11:27.471Z,10.41
2023-05-16T05:13:54.247Z,10.38
2023-05-16T05:16:21.017Z,10.37
2023-05-16T05:18:47.961Z,10.38
2023-05-16T05:21:14.675Z,10.32
2023-05-16T05:23:41.371Z,10.22
2023-05-16T05:26:08.356Z,10.14
2023-05-16T05:28:35.023Z,10.11
2023-05-16T05:31:01.701Z,10.00
2023-05-16T05:33:29.594Z,9.96
2023-05-16T05:35:56.550Z,9.87
2023-05-16T05:38:23.489Z,9.84
2023-05-16T05:40:50.130Z,9.84
2023-05-16T05:43:17.130Z,9.88
2023-05-16T05:45:44.364Z,9.94
2023-05-16T05:48:11.777Z,9.92
2023-05-16T05:50:38.773Z,9.92
2023-05-16T05:53:05.600Z,9.87
2023-05-16T05:55:32.263Z,9.79
2023-05-16T05:57:58.958Z,9.81
2023-05-16T06:00:26.067Z,9.78
2023-05-16T06:02:53.083Z,9.67
2023-05-16T06:05:20.354Z,9.65
2023-05-16T06:07:47.029Z,9.73
2023-05-16T06:10:13.645Z,9.81
2023-05-16T06:12:40.392Z,9.84
2023-05-16T06:15:07.799Z,9.83
2023-05-16T06:17:34.621Z,9.74
2023-05-16T06:20:01.862Z,9.78
2023-05-16T06:22:28.618Z,9.78
2023-05-16T06:24:55.397Z,9.84
2023-05-16T06:27:22.485Z,9.81
2023-05-16T06:29:49.119Z,9.78
2023-05-16T06:32:15.898Z,9.80
2023-05-16T06:34:42.605Z,9.87
2023-05-16T06:37:09.500Z,9.88
2023-05-16T06:39:36.123Z,9.89
2023-05-16T06:42:02.788Z,9.88
2023-05-16T06:44:29.543Z,9.93
2023-05-16T06:46:57.106Z,9.94
2023-05-16T06:49:24.060Z,9.98
2023-05-16T06:51:50.760Z,9.99
2023-05-16T06:54:17.464Z,9.93
2023-05-16T06:56:45.236Z,9.84
2023-05-16T06:59:11.958Z,9.76
2023-05-16T07:01:38.710Z,9.84
2023-05-16T07:04:05.795Z,9.90
2023-05-16T07:06:32.790Z,9.88
2023-05-16T07:08:59.455Z,9.87
2023-05-16T07:11:26.153Z,9.98
2023-05-16T07:13:52.952Z,10.02
2023-05-16T07:16:19.716Z,10.04
2023-05-16T07:18:46.625Z,10.06
2023-05-16T07:21:13.258Z,10.04
2023-05-16T07:23:40.040Z,10.01
2023-05-16T07:26:06.778Z,10.00
2023-05-16T07:28:33.950Z,9.94
2023-05-16T07:31:00.821Z,9.96
2023-05-16T07:33:27.528Z,9.81
2023-05-16T07:36:00.846Z,9.63
2023-05-16T07:38:35.075Z,9.66
2023-05-16T07:41:01.721Z,9.69
2023-05-16T07:43:30.247Z,9.68
2023-05-16T07:45:57.483Z,9.67
2023-05-16T07:48:24.196Z,9.67
2023-05-16T07:50:50.902Z,9.69
2023-05-16T07:53:17.726Z,9.71
2023-05-16T07:55:44.473Z,9.73
2023-05-16T07:58:11.231Z,9.78
2023-05-16T08:00:37.910Z,9.80
2023-05-16T08:03:04.773Z,9.90
2023-05-16T08:05:31.597Z,9.99
2023-05-16T08:07:58.667Z,10.11
2023-05-16T08:10:25.741Z,10.09
2023-05-16T08:12:53.905Z,9.96
2023-05-16T08:15:21.601Z,9.93
2023-05-16T08:17:48.340Z,9.84
2023-05-16T08:20:15.068Z,9.87
2023-05-16T08:22:41.756Z,9.82
2023-05-16T08:25:09.226Z,9.77
2023-05-16T08:27:36.102Z,9.57
2023-05-16T08:30:03.158Z,9.50
2023-05-16T08:32:29.815Z,9.51
2023-05-16T08:34:56.567Z,9.48
2023-05-16T08:37:23.420Z,9.51
2023-05-16T08:39:50.113Z,9.56
2023-05-16T08:42:16.935Z,9.60
2023-05-16T08:44:43.744Z,9.74
2023-05-16T08:47:16.327Z,9.79
2023-05-16T08:49:44.514Z,9.82
2023-05-16T08:52:13.025Z,9.90
2023-05-16T08:54:45.791Z,9.87
2023-05-16T08:57:14.598Z,9.94
2023-05-16T08:59:42.370Z,9.96
2023-05-16T09:02:09.401Z,10.01
2023-05-16T09:04:37.580Z,10.03
2023-05-16T09:07:04.372Z,10.11
2023-05-16T09:09:31.447Z,10.13
2023-05-16T09:11:58.125Z,10.10
2023-05-16T09:14:24.863Z,10.08
2023-05-16T09:17:12.195Z,9.95
2023-05-16T09:19:41.041Z,9.82
2023-05-16T09:22:15.562Z,9.76
2023-05-16T09:24:44.407Z,9.79
2023-05-16T09:27:15.219Z,9.83
2023-05-16T09:29:46.159Z,9.87
2023-05-16T09:32:15.049Z,9.84
2023-05-16T09:34:49.420Z,9.72
2023-05-16T09:37:16.421Z,9.69
2023-05-16T09:39:47.918Z,9.73
2023-05-16T09:42:16.046Z,9.87
2023-05-16T09:44:47.901Z,9.91
2023-05-16T09:47:16.757Z,10.02
2023-05-16T09:49:45.448Z,10.30
2023-05-16T09:52:13.647Z,10.70
2023-05-16T09:54:41.222Z,10.93
2023-05-16T09:57:08.008Z,10.92
2023-05-16T09:59:41.099Z,10.83
2023-05-16T10:02:08.213Z,11.00
2023-05-16T10:04:38.545Z,11.28
2023-05-16T10:07:06.924Z,11.60
2023-05-16T10:09:34.340Z,11.93
2023-05-16T10:12:05.390Z,12.01
2023-05-16T10:14:41.443Z,12.24
2023-05-16T10:17:11.995Z,12.11
2023-05-16T10:19:40.220Z,12.04
2023-05-16T10:22:07.490Z,12.09
2023-05-16T10:24:48.458Z,12.35
2023-05-16T10:27:16.893Z,12.32
2023-05-16T10:29:54.108Z,12.34
2023-05-16T10:32:23.561Z,12.43
2023-05-16T10:34:51.198Z,12.49
2023-05-16T10:37:18.020Z,12.30
2023-05-16T10:39:46.173Z,12.16
2023-05-16T10:42:18.256Z,12.11
2023-05-16T10:44:54.750Z,12.21
2023-05-16T10:47:29.473Z,12.18
2023-05-16T10:49:56.240Z,12.19
2023-05-16T10:52:34.021Z,12.27
2023-05-16T10:55:04.280Z,12.11
2023-05-16T10:57:33.750Z,12.33
2023-05-16T11:00:02.055Z,12.63
2023-05-16T11:02:33.822Z,13.11
2023-05-16T11:05:02.969Z,13.53
2023-05-16T11:07:36.116Z,13.51
2023-05-16T11:10:11.413Z,13.23
2023-05-16T11:12:52.450Z,13.10
2023-05-16T11:15:28.325Z,12.97
2023-05-16T11:18:15.977Z,12.86
2023-05-16T11:20:43.300Z,13.05
2023-05-16T11:23:19.118Z,13.80
2023-05-16T11:25:46.983Z,13.70
2023-05-16T11:28:17.226Z,13.50
2023-05-16T11:30:46.322Z,14.03
2023-05-16T11:33:13.579Z,14.56
2023-05-16T11:35:40.326Z,14.29
2023-05-16T11:38:07.169Z,14.32
2023-05-16T11:40:35.150Z,14.13
2023-05-16T11:43:07.026Z,13.76
2023-05-16T11:45:35.555Z,13.55
2023-05-16T11:48:08.413Z,13.42
2023-05-16T11:50:36.205Z,13.92
2023-05-16T11:53:03.247Z,14.20
2023-05-16T11:58:01.454Z,15.38
2023-05-16T12:00:28.275Z,15.32
2023-05-16T12:03:01.710Z,14.99
2023-05-16T12:05:30.922Z,14.57
2023-05-16T12:07:58.004Z,14.46
2023-05-16T12:10:24.839Z,14.22
2023-05-16T12:12:53.071Z,14.30
2023-05-16T12:15:20.196Z,14.49
2023-05-16T12:17:47.961Z,15.26
2023-05-16T12:20:16.703Z,16.09
2023-05-16T12:22:45.261Z,16.56
2023-05-16T12:25:25.685Z,15.97
2023-05-16T12:28:01.133Z,16.78
2023-05-16T12:30:30.646Z,16.75
2023-05-16T12:33:05.812Z,16.27
2023-05-16T12:35:34.793Z,15.87
2023-05-16T12:38:09.004Z,16.41
2023-05-16T12:40:41.035Z,15.89
2023-05-16T12:43:21.547Z,15.89
2023-05-16T12:45:53.250Z,15.42
2023-05-16T12:48:20.253Z,15.62
2023-05-16T12:50:47.137Z,15.83
2023-05-16T12:53:14.806Z,16.48
2023-05-16T12:55:42.642Z,16.67
2023-05-16T12:58:10.536Z,16.51
2023-05-16T13:00:37.945Z,16.54
2023-05-16T13:03:06.603Z,16.36
2023-05-16T13:05:33.880Z,16.34
2023-05-16T13:08:01.550Z,16.24
2023-05-16T13:10:28.590Z,15.94
2023-05-16T13:12:58.761Z,15.05
2023-05-16T13:15:26.311Z,15.46
2023-05-16T13:17:53.545Z,15.96
2023-05-16T13:20:21.352Z,16.58
2023-05-16T13:22:48.170Z,16.67
2023-05-16T13:25:14.803Z,16.28
2023-05-16T13:27:41.845Z,16.66
2023-05-16T13:30:09.061Z,16.45
2023-05-16T13:32:36.162Z,16.86
2023-05-16T13:35:04.254Z,16.55
2023-05-16T13:37:31.482Z,15.89
2023-05-16T13:39:58.337Z,16.50
2023-05-16T13:42:25.260Z,16.37
2023-05-16T13:44:52.254Z,16.52
2023-05-16T13:47:18.911Z,16.13
2023-05-16T13:49:46.162Z,16.49
2023-05-16T13:52:13.018Z,16.43
2023-05-16T13:54:41.442Z,16.07
2023-05-16T13:57:08.359Z,15.88
2023-05-16T14:02:05.101Z,15.37
2023-05-16T14:04:31.796Z,15.25
2023-05-16T14:06:58.623Z,15.19
2023-05-16T14:09:25.456Z,15.43
2023-05-16T14:11:52.794Z,16.03
2023-05-16T14:14:19.582Z,15.63
2023-05-16T14:16:47.313Z,15.54
2023-05-16T14:19:16.591Z,15.28
2023-05-16T14:21:45.240Z,15.15
2023-05-16T14:24:12.129Z,14.80
2023-05-16T14:26:40.858Z,14.70
2023-05-16T14:29:07.653Z,14.63
2023-05-16T14:31:38.902Z,14.63
2023-05-16T14:34:05.868Z,14.60
2023-05-16T14:36:33.061Z,14.49
2023-05-16T14:39:00.373Z,14.66
2023-05-16T14:41:27.464Z,14.71
2023-05-16T14:43:55.153Z,14.54
2023-05-16T14:46:21.922Z,14.42
2023-05-16T14:48:48.631Z,14.39
2023-05-16T14:51:15.424Z,14.21
2023-05-16T14:53:42.524Z,14.24
2023-05-16T14:56:10.427Z,14.27
2023-05-16T14:58:37.138Z,14.45
2023-05-16T15:01:04.323Z,14.92
2023-05-16T15:03:43.253Z,14.90
2023-05-16T15:06:10.205Z,15.06
2023-05-16T15:08:38.527Z,14.76
2023-05-16T15:11:05.521Z,14.78
2023-05-16T15:13:32.267Z,14.53
2023-05-16T15:15:59.135Z,14.81
2023-05-16T15:18:25.902Z,14.92
2023-05-16T15:20:53.293Z,15.00
2023-05-16T15:23:20.096Z,15.03
2023-05-16T15:25:46.850Z,15.06
2023-05-16T15:28:13.592Z,14.91
2023-05-16T15:30:40.577Z,14.82
2023-05-16T15:33:07.392Z,14.83
2023-05-16T15:35:34.098Z,14.85
2023-05-16T15:38:01.001Z,14.88
2023-05-16T15:40:27.946Z,14.94
2023-05-16T15:42:54.683Z,14.71
2023-05-16T15:45:21.485Z,14.56
2023-05-16T15:47:48.292Z,14.87
2023-05-16T15:50:15.078Z,15.07
2023-05-16T15:52:41.791Z,15.03
2023-05-16T15:55:09.226Z,15.04
2023-05-16T15:57:35.982Z,15.02
2023-05-16T16:00:02.629Z,14.79
2023-05-16T16:02:29.327Z,14.84
2023-05-16T16:04:58.719Z,14.92
2023-05-16T16:07:26.116Z,14.86
2023-05-16T16:09:52.896Z,14.81
2023-05-16T16:12:19.747Z,14.90
2023-05-16T16:14:49.416Z,14.75
2023-05-16T16:17:16.687Z,14.56
2023-05-16T16:19:44.702Z,14.56
2023-05-16T16:22:11.554Z,14.47
2023-05-16T16:24:38.619Z,14.47
2023-05-16T16:27:05.471Z,14.53
2023-05-16T16:29:32.388Z,14.46
2023-05-16T16:31:59.257Z,14.38
2023-05-16T16:34:26.051Z,14.48
2023-05-16T16:36:52.762Z,14.23
2023-05-16T16:39:19.911Z,14.11
2023-05-16T16:41:47.028Z,14.17
2023-05-16T16:44:14.045Z,14.03
2023-05-16T16:46:40.945Z,13.91
2023-05-16T16:49:07.666Z,13.78
2023-05-16T16:51:35.018Z,13.69
2023-05-16T16:54:01.979Z,13.61
2023-05-16T16:56:30.038Z,13.31
2023-05-16T16:58:56.988Z,13.28
2023-05-16T17:01:23.859Z,13.25
2023-05-16T17:03:50.920Z,13.26
2023-05-16T17:06:17.649Z,13.22
2023-05-16T17:08:45.480Z,13.28
2023-05-16T17:11:12.192Z,13.23
2023-05-16T17:13:42.021Z,13.21
2023-05-16T17:16:10.210Z,13.19
2023-05-16T17:18:37.047Z,13.15
2023-05-16T17:21:03.888Z,13.15
2023-05-16T17:23:30.818Z,13.11
2023-05-16T17:25:57.557Z,13.08
2023-05-16T17:28:24.995Z,13.04
2023-05-16T17:30:52.250Z,12.99
2023-05-16T17:33:19.406Z,12.94
2023-05-16T17:35:46.093Z,12.81
2023-05-16T17:38:13.519Z,12.77
2023-05-16T17:40:40.155Z,12.68
2023-05-16T17:43:06.922Z,12.62
2023-05-16T17:45:33.902Z,12.61
2023-05-16T17:48:00.659Z,12.62
2023-05-16T17:50:29.490Z,12.59
2023-05-16T17:52:56.304Z,12.58
2023-05-16T17:55:23.208Z,12.52
2023-05-16T17:57:49.883Z,12.47
2023-05-16T18:00:17.807Z,12.40
2023-05-16T18:02:44.842Z,12.38
2023-05-16T18:05:12.229Z,12.36
2023-05-16T18:07:39.092Z,12.28
2023-05-16T18:10:06.319Z,12.20
2023-05-16T18:12:33.140Z,12.19
2023-05-16T18:15:00.002Z,12.19
2023-05-16T18:17:26.683Z,12.14
2023-05-16T18:19:53.566Z,12.07
2023-05-16T18:22:21.217Z,12.04
2023-05-16T18:24:47.846Z,12.04
2023-05-16T18:27:14.647Z,11.98
2023-05-16T18:29:42.301Z,11.91
2023-05-16T18:32:11.945Z,11.87
2023-05-16T18:34:38.626Z,11.79
2023-05-16T18:37:06.676Z,11.77
2023-05-16T18:39:33.562Z,11.71
2023-05-16T18:42:00.490Z,11.62
2023-05-16T18:44:27.388Z,11.60
2023-05-16T18:46:54.279Z,11.57
2023-05-16T18:49:20.950Z,11.49
2023-05-16T18:51:47.697Z,11.48
2023-05-16T18:54:14.392Z,11.38
2023-05-16T18:56:42.542Z,11.32
2023-05-16T18:59:09.610Z,11.25
2023-05-16T19:01:36.898Z,11.26
2023-05-16T19:04:04.054Z,11.19
2023-05-16T19:06:30.951Z,11.19
2023-05-16T19:08:57.872Z,11.14
2023-05-16T19:11:24.641Z,11.06
2023-05-16T19:13:51.393Z,10.96
2023-05-16T19:16:18.099Z,10.95
2023-05-16T19:18:44.922Z,10.92
2023-05-16T19:21:13.601Z,10.84
2023-05-16T19:23:40.655Z,10.74
2023-05-16T19:26:07.378Z,10.71
2023-05-16T19:28:34.753Z,10.70
2023-05-16T19:31:01.528Z,10.68
2023-05-16T19:33:28.306Z,10.62
2023-05-16T19:35:58.536Z,10.61
2023-05-16T19:38:25.988Z,10.52
2023-05-16T19:40:53.448Z,10.42
2023-05-16T19:43:20.238Z,10.40
2023-05-16T19:45:47.026Z,10.25
2023-05-16T19:48:14.114Z,10.14
2023-05-16T19:50:41.123Z,10.07
2023-05-16T19:53:07.798Z,9.96
2023-05-16T19:55:37.876Z,9.99
2023-05-16T19:58:05.050Z,9.95
2023-05-16T20:00:31.800Z,9.92
2023-05-16T20:02:58.611Z,9.86
2023-05-16T20:05:25.867Z,9.79
2023-05-16T20:07:56.044Z,9.73
2023-05-16T20:10:22.933Z,9.66
2023-05-16T20:12:49.993Z,9.59
2023-05-16T20:15:16.764Z,9.51
2023-05-16T20:17:43.559Z,9.41
2023-05-16T20:20:10.766Z,9.31
2023-05-16T20:22:41.601Z,9.23
2023-05-16T20:25:10.415Z,9.15
2023-05-16T20:27:37.792Z,9.05
2023-05-16T20:30:06.842Z,9.02
2023-05-16T20:32:34.192Z,9.01
2023-05-16T20:35:01.274Z,8.99
2023-05-16T20:37:28.059Z,8.94
2023-05-16T20:39:54.769Z,8.89
2023-05-16T20:42:21.960Z,8.89
2023-05-16T20:44:48.637Z,8.86
2023-05-16T20:47:17.112Z,8.75
2023-05-16T20:49:44.276Z,8.62
2023-05-16T20:52:11.366Z,8.53
2023-05-16T20:54:38.028Z,8.53
2023-05-16T20:57:05.185Z,8.48
2023-05-16T20:59:32.372Z,8.42
2023-05-16T21:01:59.437Z,8.36
2023-05-16T21:04:26.402Z,8.32
2023-05-16T21:06:53.167Z,8.24
2023-05-16T21:09:19.954Z,8.14
2023-05-16T21:11:46.792Z,8.05
2023-05-16T21:14:13.537Z,7.98
2023-05-16T21:16:40.219Z,7.92
2023-05-16T21:19:07.017Z,7.85
2023-05-16T21:21:33.782Z,7.79
2023-05-16T21:24:00.430Z,7.75
2023-05-16T21:26:27.120Z,7.70
2023-05-16T21:28:55.503Z,7.63
2023-05-16T21:31:23.021Z,7.59
2023-05-16T21:33:52.141Z,7.60
2023-05-16T21:36:22.710Z,7.57
2023-05-16T21:38:49.314Z,7.53
2023-05-16T21:41:16.077Z,7.50
2023-05-16T21:43:42.705Z,7.47
2023-05-16T21:46:09.414Z,7.43
2023-05-16T21:48:36.230Z,7.41
2023-05-16T21:51:03.721Z,7.41
2023-05-16T21:53:30.459Z,7.40
2023-05-16T21:55:57.128Z,7.31
2023-05-16T21:58:25.278Z,7.30
2023-05-16T22:00:52.055Z,7.32
2023-05-16T22:03:21.046Z,7.27
2023-05-16T22:05:48.099Z,7.28
2023-05-16T22:08:14.824Z,7.29
2023-05-16T22:10:41.573Z,7.30
2023-05-16T22:13:08.307Z,7.31
2023-05-16T22:15:35.016Z,7.31
2023-05-16T22:18:01.954Z,7.30
2023-05-16T22:20:29.766Z,7.29
2023-05-16T22:22:56.725Z,7.27
2023-05-16T22:25:23.620Z,7.28
2023-05-16T22:27:50.406Z,7.25
2023-05-16T22:30:17.082Z,7.17
2023-05-16T22:32:45.830Z,7.14
2023-05-16T22:35:13.852Z,7.10
2023-05-16T22:37:40.448Z,7.05
2023-05-16T22:40:08.369Z,7.02
2023-05-16T22:42:35.053Z,6.96
2023-05-16T22:45:01.754Z,6.91
2023-05-16T22:47:28.945Z,6.85
2023-05-16T22:49:55.911Z,6.80
2023-05-16T22:52:22.702Z,6.77
2023-05-16T22:54:49.434Z,6.71
2023-05-16T22:57:16.259Z,6.68
2023-05-16T22:59:43.022Z,6.65
2023-05-16T23:02:09.731Z,6.60
2023-05-16T23:04:36.629Z,6.52
2023-05-16T23:07:03.449Z,6.52
2023-05-16T23:09:30.103Z,6.50
2023-05-16T23:11:56.914Z,6.50
2023-05-16T23:14:23.668Z,6.43
2023-05-16T23:16:50.359Z,6.36
2023-05-16T23:19:17.131Z,6.27
2023-05-16T23:21:44.550Z,6.22
2023-05-16T23:24:11.282Z,6.19
2023-05-16T23:26:37.982Z,6.11
2023-05-16T23:29:04.792Z,6.04
2023-05-16T23:31:31.527Z,6.03
2023-05-16T23:33:58.215Z,6.03
2023-05-16T23:36:24.843Z,6.03
2023-05-16T23:38:51.521Z,6.03
2023-05-16T23:41:18.346Z,6.01
2023-05-16T23:43:45.016Z,6.00
2023-05-16T23:46:11.808Z,5.95
2023-05-16T23:48:38.745Z,5.88
2023-05-16T23:51:07.716Z,5.86
2023-05-16T23:53:35.408Z,5.83
2023-05-16T23:56:02.234Z,5.77
2023-05-16T23:58:29.035Z,5.72
